Time;durP1;ratioP1;P1;durP2;ratioP2;P2;SDS_P1;SDS_P2;PMS_P1;PMS_P2;Temp;Humidity;BMP_temperature;BMP_pressure;BME280_temperature;BME280_humidity;BME280_pressure;Samples;Min_cycle;Max_cycle;Signal;HPM_P1;HPM_P2
2021/10/10 00:01:59;;;;;;;39.28;26.73;;;;;;;6.46;100.00;102357.81;5060050;28;20098;-81
2021/10/10 00:04:25;;;;;;;35.47;25.23;;;;;;;6.42;100.00;102358.97;5049015;28;20124;-84
2021/10/10 00:06:51;;;;;;;32.33;24.08;;;;;;;6.37;100.00;102358.41;5059753;28;20040;-82
2021/10/10 00:09:16;;;;;;;36.55;26.55;;;;;;;6.36;100.00;102350.50;5054424;28;20681;-84
2021/10/10 00:11:41;;;;;;;42.22;25.42;;;;;;;6.30;100.00;102346.41;5038563;28;20045;-86
2021/10/10 00:14:07;;;;;;;39.53;26.60;;;;;;;6.26;100.00;102347.56;5037790;28;20059;-87
2021/10/10 00:16:32;;;;;;;39.22;26.98;;;;;;;6.25;100.00;102343.19;5034331;28;20043;-84
2021/10/10 00:18:58;;;;;;;39.60;27.67;;;;;;;6.21;100.00;102349.66;5026149;28;20234;-87
2021/10/10 00:21:23;;;;;;;37.33;26.50;;;;;;;6.17;100.00;102346.34;5031602;28;20047;-81
2021/10/10 00:23:51;;;;;;;37.45;25.38;;;;;;;6.11;100.00;102349.41;5035673;28;20128;-86
2021/10/10 00:26:17;;;;;;;36.88;26.83;;;;;;;6.13;100.00;102347.50;5037255;28;20071;-80
2021/10/10 00:28:43;;;;;;;37.88;26.75;;;;;;;6.08;100.00;102345.13;5038654;28;20046;-85
2021/10/10 00:31:09;;;;;;;38.35;27.67;;;;;;;6.02;100.00;102342.84;5024856;28;20037;-83
2021/10/10 00:33:34;;;;;;;37.92;27.13;;;;;;;5.98;100.00;102341.31;5037819;28;20099;-85
2021/10/10 00:36:00;;;;;;;36.53;26.70;;;;;;;5.95;100.00;102352.16;5061155;28;20432;-85
2021/10/10 00:38:25;;;;;;;41.22;27.90;;;;;;;5.94;100.00;102342.47;5059827;28;20526;-86
2021/10/10 00:40:50;;;;;;;38.90;25.95;;;;;;;5.91;100.00;102342.63;5058562;28;20041;-82
2021/10/10 00:43:16;;;;;;;43.33;28.17;;;;;;;5.88;100.00;102341.00;5060314;28;20037;-83
2021/10/10 00:45:51;;;;;;;41.78;28.98;;;;;;;5.90;100.00;102338.28;5041223;28;20625;-84
2021/10/10 00:48:17;;;;;;;39.58;27.63;;;;;;;5.83;100.00;102334.25;5057418;28;20972;-88
2021/10/10 00:50:44;;;;;;;41.58;26.88;;;;;;;5.78;100.00;102339.00;5047869;28;20064;-83
2021/10/10 00:53:11;;;;;;;39.45;28.13;;;;;;;5.76;100.00;102340.94;5063192;28;20273;-82
2021/10/10 00:55:37;;;;;;;40.70;27.90;;;;;;;5.73;100.00;102330.47;5059872;28;20075;-88
2021/10/10 00:58:06;;;;;;;42.50;29.33;;;;;;;5.72;100.00;102331.41;5056689;28;20025;-87
2021/10/10 01:00:31;;;;;;;42.03;30.50;;;;;;;5.68;100.00;102333.41;5063136;28;20040;-84
2021/10/10 01:02:58;;;;;;;45.65;29.75;;;;;;;5.64;100.00;102335.41;5055164;28;20041;-86
2021/10/10 01:05:25;;;;;;;43.88;29.95;;;;;;;5.62;100.00;102334.63;5065117;28;20032;-85
2021/10/10 01:07:52;;;;;;;41.97;29.42;;;;;;;5.56;100.00;102329.69;5060783;28;20037;-84
2021/10/10 01:10:18;;;;;;;40.90;29.33;;;;;;;5.55;100.00;102329.78;5061250;28;20044;-82
2021/10/10 01:12:44;;;;;;;44.60;30.40;;;;;;;5.53;100.00;102327.22;5067195;28;20728;-83
2021/10/10 01:15:10;;;;;;;39.53;28.42;;;;;;;5.51;100.00;102336.25;5066418;28;20123;-85
2021/10/10 01:17:37;;;;;;;38.42;27.30;;;;;;;5.49;100.00;102336.34;5051740;28;20299;-84
2021/10/10 01:20:06;;;;;;;40.30;28.65;;;;;;;5.48;100.00;102331.97;5069567;28;20036;-83
2021/10/10 01:22:31;;;;;;;41.50;28.88;;;;;;;5.44;100.00;102330.47;5068631;28;20044;-87
2021/10/10 01:24:57;;;;;;;41.67;29.83;;;;;;;5.43;100.00;102331.38;5068853;28;20032;-83
2021/10/10 01:27:22;;;;;;;43.17;29.30;;;;;;;5.38;100.00;102329.03;5066783;28;20174;-82
2021/10/10 01:29:48;;;;;;;42.80;30.05;;;;;;;5.39;100.00;102322.75;5068868;28;20036;-85
2021/10/10 01:32:13;;;;;;;41.33;30.40;;;;;;;5.34;100.00;102319.50;5068255;28;20080;-83
2021/10/10 01:34:46;;;;;;;40.65;29.83;;;;;;;5.27;100.00;102317.31;5069337;28;20397;-82
2021/10/10 01:37:13;;;;;;;42.17;29.92;;;;;;;5.27;100.00;102319.97;5063442;28;20029;-80
2021/10/10 01:39:38;;;;;;;48.75;31.95;;;;;;;5.25;100.00;102313.88;5077861;28;20052;-86
2021/10/10 01:42:04;;;;;;;43.22;31.13;;;;;;;5.25;100.00;102314.72;5067771;28;20033;-85
2021/10/10 01:44:29;;;;;;;43.35;29.77;;;;;;;5.24;100.00;102306.84;5063564;28;20405;-84
2021/10/10 01:46:55;;;;;;;45.72;30.58;;;;;;;5.19;100.00;102299.13;5082365;28;20040;-85
2021/10/10 01:49:21;;;;;;;45.20;31.42;;;;;;;5.18;100.00;102308.06;5065334;28;20045;-87
2021/10/10 01:51:46;;;;;;;44.38;31.05;;;;;;;5.17;100.00;102311.66;5054235;28;20517;-82
2021/10/10 01:54:12;;;;;;;41.78;30.27;;;;;;;5.17;100.00;102312.50;5067506;28;20123;-85
2021/10/10 01:56:37;;;;;;;43.13;29.48;;;;;;;5.14;100.00;102302.06;5068585;28;20369;-84
2021/10/10 01:59:03;;;;;;;43.13;30.95;;;;;;;5.11;100.00;102302.25;5069450;28;20051;-83
2021/10/10 02:01:28;;;;;;;39.03;27.48;;;;;;;5.08;100.00;102302.44;5068368;28;20047;-85
2021/10/10 02:03:54;;;;;;;41.83;30.25;;;;;;;5.05;100.00;102297.28;5061167;28;20547;-84
2021/10/10 02:06:19;;;;;;;38.08;27.30;;;;;;;5.03;100.00;102293.00;5050621;28;20485;-86
2021/10/10 02:08:48;;;;;;;43.17;29.00;;;;;;;4.99;100.00;102295.00;5064839;28;20048;-87
2021/10/10 02:11:13;;;;;;;40.78;28.98;;;;;;;4.95;100.00;102296.16;5061777;28;20052;-85
2021/10/10 02:13:41;;;;;;;39.83;30.30;;;;;;;4.92;100.00;102302.50;5067424;28;20094;-83
2021/10/10 02:16:06;;;;;;;40.97;29.08;;;;;;;4.90;100.00;102303.53;5051898;28;20063;-85
2021/10/10 02:18:32;;;;;;;39.75;27.50;;;;;;;4.86;100.00;102291.34;5047809;28;20075;-88
2021/10/10 02:20:57;;;;;;;43.20;28.75;;;;;;;4.86;100.00;102302.88;5067973;28;20056;-83
2021/10/10 02:23:22;;;;;;;42.80;28.90;;;;;;;4.85;100.00;102301.13;5061401;28;20041;-86
2021/10/10 02:25:48;;;;;;;38.42;28.27;;;;;;;4.80;100.00;102297.88;5061701;28;20052;-83
2021/10/10 02:28:13;;;;;;;40.42;28.52;;;;;;;4.77;100.00;102294.56;5065698;28;20068;-85
2021/10/10 02:30:38;;;;;;;41.05;29.40;;;;;;;4.78;100.00;102290.97;5063206;28;20330;-85
2021/10/10 02:33:04;;;;;;;44.25;30.33;;;;;;;4.72;100.00;102285.06;5044741;28;20041;-83
2021/10/10 02:35:29;;;;;;;42.60;31.00;;;;;;;4.72;100.00;102292.19;5055951;28;20059;-85
2021/10/10 02:37:55;;;;;;;42.58;30.02;;;;;;;4.70;100.00;102275.44;5048536;28;20115;-84
2021/10/10 02:40:20;;;;;;;46.08;31.33;;;;;;;4.69;100.00;102287.91;5064177;28;20064;-84
2021/10/10 02:42:45;;;;;;;48.45;33.53;;;;;;;4.69;100.00;102287.91;5048305;28;20060;-85
2021/10/10 02:45:11;;;;;;;45.95;30.05;;;;;;;4.68;100.00;102285.31;5066172;28;20090;-85
2021/10/10 02:47:36;;;;;;;45.08;30.77;;;;;;;4.65;100.00;102286.34;5062751;28;20106;-85
2021/10/10 02:50:03;;;;;;;43.80;29.73;;;;;;;4.61;100.00;102283.97;5064925;28;20120;-84
2021/10/10 02:52:29;;;;;;;45.90;31.02;;;;;;;4.59;100.00;102280.53;5065410;28;20408;-82
2021/10/10 02:54:54;;;;;;;44.63;28.95;;;;;;;4.56;100.00;102281.56;5048914;28;20041;-86
2021/10/10 02:57:19;;;;;;;45.13;30.75;;;;;;;4.53;100.00;102281.75;5067394;28;20098;-81
2021/10/10 02:59:46;;;;;;;43.88;30.92;;;;;;;4.53;100.00;102279.09;5067689;28;20048;-87
2021/10/10 03:02:11;;;;;;;45.13;31.13;;;;;;;4.48;100.00;102282.00;5049410;28;20554;-83
2021/10/10 03:04:37;;;;;;;46.35;29.63;;;;;;;4.46;100.00;102273.28;5067584;28;20036;-84
2021/10/10 03:07:02;;;;;;;41.78;29.48;;;;;;;4.46;100.00;102267.06;5064500;28;20040;-83
2021/10/10 03:09:28;;;;;;;41.38;29.85;;;;;;;4.44;100.00;102274.31;5067192;28;20047;-88
2021/10/10 03:11:54;;;;;;;43.25;30.10;;;;;;;4.42;100.00;102268.22;5065156;28;20064;-84
2021/10/10 03:14:20;;;;;;;41.40;29.95;;;;;;;4.41;100.00;102274.50;5065806;28;20044;-83
2021/10/10 03:16:45;;;;;;;38.92;28.05;;;;;;;4.39;100.00;102277.22;5066149;28;20264;-84
2021/10/10 03:19:10;;;;;;;36.40;27.13;;;;;;;4.35;100.00;102274.84;5063909;28;20056;-87
2021/10/10 03:21:36;;;;;;;39.03;28.10;;;;;;;4.37;100.00;102267.63;5064501;28;20044;-86
2021/10/10 03:24:01;;;;;;;38.72;28.80;;;;;;;4.32;100.00;102269.72;5061783;28;20051;-85
2021/10/10 03:26:29;;;;;;;40.90;29.38;;;;;;;4.29;100.00;102270.72;5061535;28;20087;-86
2021/10/10 03:28:54;;;;;;;41.40;28.58;;;;;;;4.29;100.00;102271.59;5051847;28;20063;-84
2021/10/10 03:31:20;;;;;;;43.67;29.38;;;;;;;4.28;100.00;102269.84;5066234;28;20179;-86
2021/10/10 03:33:47;;;;;;;39.80;27.40;;;;;;;4.27;100.00;102270.81;5072880;28;20128;-84
2021/10/10 03:36:12;;;;;;;38.30;27.95;;;;;;;4.25;100.00;102264.72;5058521;28;20119;-81
2021/10/10 03:38:38;;;;;;;40.58;28.05;;;;;;;4.26;100.00;102270.91;5055105;28;20183;-82
2021/10/10 03:41:05;;;;;;;35.97;25.92;;;;;;;4.22;100.00;102267.53;5036075;28;20095;-87
2021/10/10 03:43:31;;;;;;;39.88;28.52;;;;;;;4.20;100.00;102261.47;5039273;28;20045;-84
2021/10/10 03:46:00;;;;;;;36.38;26.38;;;;;;;4.17;100.00;102261.66;5040733;28;20144;-84
2021/10/10 03:48:26;;;;;;;38.05;26.33;;;;;;;4.18;100.00;102267.81;5056767;28;20040;-83
2021/10/10 03:50:57;;;;;;;34.65;26.58;;;;;;;4.17;100.00;102259.00;5057513;28;20409;-84
2021/10/10 03:53:32;;;;;;;36.03;26.27;;;;;;;4.17;100.00;102260.78;5062253;28;20063;-85
2021/10/10 03:55:58;;;;;;;35.72;25.75;;;;;;;4.18;100.00;102255.38;5064640;28;20037;-85
2021/10/10 03:58:26;;;;;;;36.95;27.08;;;;;;;4.16;100.00;102254.63;5056960;28;20052;-85
2021/10/10 04:00:53;;;;;;;37.37;26.47;;;;;;;4.15;100.00;102252.91;5059886;28;20048;-82
2021/10/10 04:03:19;;;;;;;35.85;23.80;;;;;;;4.15;100.00;102254.72;5058734;28;20291;-80
2021/10/10 04:05:48;;;;;;;37.88;26.55;;;;;;;4.15;100.00;102249.41;5048378;28;20082;-86
2021/10/10 04:08:13;;;;;;;38.95;25.27;;;;;;;4.14;100.00;102251.19;5065735;28;20048;-84
2021/10/10 04:10:39;;;;;;;37.50;25.42;;;;;;;4.08;100.00;102246.22;5065603;28;20500;-87
2021/10/10 04:13:06;;;;;;;34.17;26.05;;;;;;;4.13;100.00;102252.13;5061290;28;20128;-81
2021/10/10 04:15:34;;;;;;;35.50;25.52;;;;;;;4.12;100.00;102253.09;5051569;28;20057;-82
2021/10/10 04:18:00;;;;;;;39.20;28.45;;;;;;;4.15;100.00;102252.06;5066111;28;20170;-85
2021/10/10 04:20:26;;;;;;;34.90;24.95;;;;;;;4.17;100.00;102253.69;5058119;28;20799;-86
2021/10/10 04:22:51;;;;;;;37.00;25.67;;;;;;;4.16;100.00;102254.63;5066079;28;20037;-82
2021/10/10 04:25:17;;;;;;;38.67;25.02;;;;;;;4.14;100.00;102261.81;5059793;28;20048;-85
2021/10/10 04:27:43;;;;;;;36.15;25.13;;;;;;;4.11;100.00;102254.00;5062987;28;20044;-87
2021/10/10 04:30:15;;;;;;;39.33;25.45;;;;;;;4.09;100.00;102263.88;5059714;28;20066;-85
2021/10/10 04:32:43;;;;;;;41.78;29.63;;;;;;;4.19;100.00;102267.72;5041551;28;20174;-85
2021/10/10 04:35:11;;;;;;;34.53;24.30;;;;;;;4.13;100.00;102268.06;5046540;28;20038;-85
2021/10/10 04:37:37;;;;;;;36.33;24.63;;;;;;;4.10;100.00;102268.25;5058134;28;20098;-85
2021/10/10 04:40:04;;;;;;;35.05;25.13;;;;;;;4.07;100.00;102271.06;5058780;28;20048;-84
2021/10/10 04:42:34;;;;;;;35.22;24.23;;;;;;;4.07;100.00;102276.38;5060615;28;20097;-83
2021/10/10 04:45:02;;;;;;;35.63;25.13;;;;;;;4.06;100.00;102270.22;5055174;28;20111;-87
2021/10/10 04:47:28;;;;;;;34.42;23.77;;;;;;;4.05;100.00;102271.16;5062058;28;20500;-84
2021/10/10 04:49:54;;;;;;;35.33;25.30;;;;;;;4.04;100.00;102274.75;5062605;28;20044;-85
2021/10/10 04:52:20;;;;;;;37.63;25.70;;;;;;;4.05;100.00;102260.53;5043176;28;20393;-85
2021/10/10 04:54:47;;;;;;;36.53;26.10;;;;;;;4.00;100.00;102262.59;5058431;28;20044;-85
2021/10/10 04:57:18;;;;;;;35.15;25.13;;;;;;;4.02;100.00;102267.81;5058549;28;20035;-82
2021/10/10 04:59:49;;;;;;;37.35;25.58;;;;;;;4.00;100.00;102267.91;5061391;28;20040;-85
2021/10/10 05:02:22;;;;;;;37.15;26.60;;;;;;;4.03;100.00;102267.75;5061971;28;20574;-89
2021/10/10 05:04:50;;;;;;;38.35;27.20;;;;;;;3.99;100.00;102268.00;5038634;28;20044;-88
2021/10/10 05:07:16;;;;;;;40.47;28.23;;;;;;;4.01;100.00;102266.13;5057900;28;20123;-85
2021/10/10 05:09:42;;;;;;;36.47;24.85;;;;;;;3.94;100.00;102270.91;5058822;28;20049;-87
2021/10/10 05:12:09;;;;;;;35.40;24.33;;;;;;;3.89;100.00;102269.47;5055412;28;20053;-85
2021/10/10 05:14:34;;;;;;;36.88;25.45;;;;;;;3.92;100.00;102264.81;5060267;28;20822;-84
2021/10/10 05:17:05;;;;;;;38.08;25.67;;;;;;;3.91;100.00;102264.91;5065012;28;20048;-88
2021/10/10 05:19:31;;;;;;;34.58;25.05;;;;;;;3.89;100.00;102253.53;5057028;28;20497;-82
2021/10/10 05:21:56;;;;;;;34.70;25.35;;;;;;;3.88;100.00;102265.91;5059689;28;20115;-86
2021/10/10 05:24:22;;;;;;;42.63;28.10;;;;;;;3.81;100.00;102265.41;5062168;28;20079;-85
2021/10/10 05:26:48;;;;;;;44.30;28.08;;;;;;;3.80;100.00;102266.38;5062436;28;20056;-83
2021/10/10 05:29:14;;;;;;;41.58;29.08;;;;;;;3.79;100.00;102261.97;5063591;28;20036;-83
2021/10/10 05:31:39;;;;;;;41.95;28.75;;;;;;;3.80;100.00;102268.16;5060260;28;20063;-84
2021/10/10 05:34:05;;;;;;;40.92;28.40;;;;;;;3.80;100.00;102266.38;5062940;28;20398;-85
2021/10/10 05:36:30;;;;;;;39.22;27.25;;;;;;;3.76;100.00;102266.59;5048705;28;20045;-82
2021/10/10 05:38:59;;;;;;;39.83;26.95;;;;;;;3.72;100.00;102276.53;5065643;28;20041;-81
2021/10/10 05:41:30;;;;;;;41.20;28.25;;;;;;;3.78;100.00;102270.03;5075853;28;20111;-83
2021/10/10 05:43:57;;;;;;;38.25;26.73;;;;;;;3.72;100.00;102263.28;5061047;28;20497;-83
2021/10/10 05:46:23;;;;;;;39.53;26.65;;;;;;;3.73;100.00;102267.63;5071232;28;20041;-83
2021/10/10 05:48:48;;;;;;;37.10;26.70;;;;;;;3.73;100.00;102269.44;5030257;28;20067;-87
2021/10/10 05:51:14;;;;;;;37.35;26.65;;;;;;;3.71;100.00;102276.63;5040111;28;20045;-80
2021/10/10 05:53:41;;;;;;;40.33;26.90;;;;;;;3.65;100.00;102264.53;5041883;28;20083;-86
2021/10/10 05:56:07;;;;;;;39.08;26.85;;;;;;;3.69;100.00;102260.78;5009019;28;20409;-82
2021/10/10 05:58:40;;;;;;;39.10;27.25;;;;;;;3.66;100.00;102258.28;5047012;28;20040;-85
2021/10/10 06:01:06;;;;;;;41.08;28.48;;;;;;;3.65;100.00;102258.38;5035047;28;20051;-86
2021/10/10 06:03:32;;;;;;;40.53;27.80;;;;;;;3.65;100.00;102258.38;5048121;28;20052;-84
2021/10/10 06:05:58;;;;;;;39.70;28.15;;;;;;;3.67;100.00;102257.34;5058683;28;20164;-85
2021/10/10 06:08:23;;;;;;;39.67;27.23;;;;;;;3.68;100.00;102261.69;5060671;28;20489;-83
2021/10/10 06:10:49;;;;;;;40.05;27.55;;;;;;;3.69;100.00;102260.78;5043243;28;20120;-86
2021/10/10 06:13:14;;;;;;;40.40;28.20;;;;;;;3.65;100.00;102259.22;5034599;28;20137;-84
2021/10/10 06:15:40;;;;;;;41.50;27.75;;;;;;;3.64;100.00;102251.34;5023432;28;20440;-83
2021/10/10 06:18:09;;;;;;;41.80;27.35;;;;;;;3.65;100.00;102248.59;5030284;28;20116;-84
2021/10/10 06:20:36;;;;;;;42.15;28.88;;;;;;;3.69;100.00;102251.97;5042270;28;20367;-84
2021/10/10 06:23:02;;;;;;;40.85;29.73;;;;;;;3.72;100.00;102250.00;5044645;28;20041;-84
2021/10/10 06:25:27;;;;;;;41.28;29.65;;;;;;;3.78;100.00;102247.00;5062693;28;20091;-84
2021/10/10 06:27:53;;;;;;;40.95;28.08;;;;;;;3.75;100.00;102246.31;5046736;28;20124;-83
2021/10/10 06:30:18;;;;;;;44.42;30.88;;;;;;;3.77;100.00;102236.44;5047521;28;20045;-85
2021/10/10 06:32:43;;;;;;;40.45;28.92;;;;;;;3.82;100.00;102234.41;5043046;28;20056;-85
2021/10/10 06:35:09;;;;;;;43.92;29.17;;;;;;;3.82;100.00;102235.25;5042707;28;20404;-84
2021/10/10 06:37:34;;;;;;;46.13;29.98;;;;;;;3.87;100.00;102242.13;5044777;28;20061;-84
2021/10/10 06:40:01;;;;;;;48.38;33.60;;;;;;;3.96;100.00;102244.25;5072251;28;20033;-83
2021/10/10 06:42:26;;;;;;;47.22;32.08;;;;;;;3.99;100.00;102260.03;5061152;28;20040;-86
2021/10/10 06:44:52;;;;;;;49.03;32.40;;;;;;;4.06;100.00;102254.28;5043960;28;20090;-84
2021/10/10 06:47:17;;;;;;;49.38;34.53;;;;;;;4.17;100.00;102256.34;5066154;28;20071;-84
2021/10/10 06:49:43;;;;;;;51.17;35.50;;;;;;;4.26;100.00;102258.47;5057830;28;20793;-85
2021/10/10 06:52:08;;;;;;;56.47;38.35;;;;;;;4.38;100.00;102256.91;5033806;28;20061;-82
2021/10/10 06:54:34;;;;;;;45.33;32.45;;;;;;;4.43;100.00;102251.31;5061300;28;20481;-88
2021/10/10 06:57:00;;;;;;;51.97;34.03;;;;;;;4.55;100.00;102261.25;5049746;28;20042;-84
2021/10/10 06:59:25;;;;;;;60.03;38.92;;;;;;;4.64;100.00;102271.34;5041942;28;20111;-82
2021/10/10 07:01:50;;;;;;;53.80;39.65;;;;;;;4.83;100.00;102278.22;5065816;28;20047;-83
2021/10/10 07:04:16;;;;;;;52.15;36.30;;;;;;;4.95;100.00;102272.22;5068032;28;20051;-83
2021/10/10 07:06:42;;;;;;;50.88;33.53;;;;;;;5.06;100.00;102271.53;5065683;28;20036;-84
2021/10/10 07:09:07;;;;;;;51.72;37.15;;;;;;;5.19;100.00;102272.53;5066940;28;20120;-83
2021/10/10 07:11:33;;;;;;;48.30;35.85;;;;;;;5.30;100.00;102269.22;5053664;28;20121;-83
2021/10/10 07:13:58;;;;;;;52.03;37.13;;;;;;;5.39;100.00;102261.50;5056345;28;20040;-84
2021/10/10 07:16:28;;;;;;;49.13;33.60;;;;;;;5.47;100.00;102269.03;5048605;28;20117;-84
2021/10/10 07:18:55;;;;;;;45.85;33.67;;;;;;;5.56;100.00;102275.59;5063315;28;20041;-81
2021/10/10 07:26:37;;;;;;;44.08;30.75;;;;;;;5.81;100.00;102278.44;5063643;28;20102;-84
2021/10/10 07:29:04;;;;;;;46.22;32.05;;;;;;;5.89;100.00;102268.09;5066419;28;20481;-81
2021/10/10 07:31:29;;;;;;;51.75;35.70;;;;;;;5.98;100.00;102258.72;5063116;28;20033;-84
2021/10/10 07:33:55;;;;;;;46.13;35.20;;;;;;;6.05;100.00;102267.19;5066839;28;20033;-85
2021/10/10 07:36:20;;;;;;;46.15;32.80;;;;;;;6.12;100.00;102257.81;5064046;28;20515;-85
2021/10/10 07:38:46;;;;;;;46.72;32.15;;;;;;;6.19;100.00;102268.97;5065266;28;20039;-85
2021/10/10 07:41:11;;;;;;;40.83;29.58;;;;;;;6.24;100.00;102269.50;5069789;28;20521;-83
2021/10/10 07:43:39;;;;;;;40.53;29.75;;;;;;;6.30;100.00;102272.63;5065556;28;20053;-84
2021/10/10 07:46:19;;;;;;;43.22;29.42;;;;;;;6.41;100.00;102276.38;5065415;28;20588;-83
2021/10/10 07:48:44;;;;;;;41.65;30.00;;;;;;;6.49;100.00;102282.94;5068436;28;20029;-83
2021/10/10 07:51:10;;;;;;;39.75;28.83;;;;;;;6.59;100.00;102272.53;5063813;28;20052;-83
2021/10/10 07:53:35;;;;;;;39.50;27.88;;;;;;;6.74;100.00;102257.28;5063088;28;20048;-85
2021/10/10 07:56:01;;;;;;;48.20;29.00;;;;;;;6.85;100.00;102254.75;5070482;28;20047;-85
2021/10/10 07:58:26;;;;;;;39.03;27.33;;;;;;;6.94;100.00;102253.28;5087501;28;20139;-86
2021/10/10 08:00:51;;;;;;;35.78;26.85;;;;;;;7.06;100.00;102243.56;5070689;28;20043;-86
2021/10/10 08:03:17;;;;;;;34.17;25.60;;;;;;;7.18;100.00;102222.19;5064211;28;20036;-87
2021/10/10 08:05:44;;;;;;;32.33;22.80;;;;;;;7.28;100.00;102227.78;5065367;28;20040;-87
2021/10/10 08:08:11;;;;;;;33.13;24.15;;;;;;;7.38;100.00;102235.97;5069575;28;20123;-81
2021/10/10 08:10:37;;;;;;;35.95;25.80;;;;;;;7.44;99.62;102228.38;5070431;28;20456;-87
2021/10/10 08:13:02;;;;;;;37.47;23.80;;;;;;;7.53;99.04;102224.19;5053432;28;20053;-88
2021/10/10 08:15:28;;;;;;;36.85;24.45;;;;;;;7.64;99.65;102218.09;5075952;28;20082;-86
2021/10/10 08:17:53;;;;;;;31.83;22.55;;;;;;;7.77;99.47;102229.59;5061538;28;20040;-85
2021/10/10 08:20:19;;;;;;;32.97;23.17;;;;;;;7.88;98.30;102240.38;5053704;28;20052;-81
2021/10/10 08:22:46;;;;;;;32.45;22.58;;;;;;;8.01;98.21;102250.16;5066673;28;20586;-84
2021/10/10 08:25:12;;;;;;;33.17;24.08;;;;;;;8.08;97.36;102260.28;5069435;28;20060;-87
2021/10/10 08:27:42;;;;;;;34.55;22.33;;;;;;;8.18;96.95;102249.78;5070543;28;20421;-86
2021/10/10 08:30:11;;;;;;;36.22;26.17;;;;;;;8.32;97.31;102246.94;5071325;28;20041;-87
2021/10/10 08:32:38;;;;;;;37.20;26.35;;;;;;;8.43;95.34;102261.34;5063062;28;20037;-88
2021/10/10 08:35:04;;;;;;;31.60;23.45;;;;;;;8.51;95.54;102257.13;5063366;28;20306;-84
2021/10/10 08:37:30;;;;;;;33.88;23.75;;;;;;;8.64;95.58;102254.41;5063187;28;20053;-88
2021/10/10 08:39:55;;;;;;;33.92;24.10;;;;;;;8.74;94.27;102255.41;5068934;28;20488;-82
2021/10/10 08:42:29;;;;;;;31.85;23.65;;;;;;;8.86;94.38;102250.97;5061759;28;20158;-82
2021/10/10 08:45:03;;;;;;;34.25;22.48;;;;;;;9.02;94.01;102253.28;5036745;28;20048;-86
2021/10/10 08:47:31;;;;;;;29.55;21.88;;;;;;;9.17;93.47;102249.41;5079243;28;20046;-81
2021/10/10 08:49:57;;;;;;;31.65;22.00;;;;;;;9.25;92.25;102251.50;5066846;28;20033;-83
2021/10/10 08:52:23;;;;;;;31.85;22.30;;;;;;;9.38;91.32;102248.69;5063307;28;20047;-83
2021/10/10 08:54:49;;;;;;;29.58;22.27;;;;;;;9.48;90.63;102247.00;5068659;28;20377;-82
2021/10/10 08:57:14;;;;;;;31.02;21.13;;;;;;;9.60;91.16;102254.06;5068963;28;20475;-88
2021/10/10 08:59:46;;;;;;;28.40;20.23;;;;;;;9.67;89.85;102249.94;5080176;28;20044;-85
2021/10/10 09:02:21;;;;;;;33.30;21.38;;;;;;;9.71;90.15;102258.59;5070595;28;20063;-84
2021/10/10 09:04:47;;;;;;;27.00;19.73;;;;;;;9.78;89.29;102256.25;5068572;28;20063;-87
2021/10/10 09:07:12;;;;;;;27.33;19.58;;;;;;;9.84;89.92;102264.69;5062772;28;20037;-84
2021/10/10 09:09:39;;;;;;;27.33;18.83;;;;;;;9.96;89.81;102257.47;5067796;28;20127;-84
2021/10/10 09:12:10;;;;;;;25.30;19.63;;;;;;;10.01;89.29;102259.75;5065700;28;20539;-83
2021/10/10 09:14:48;;;;;;;28.75;19.90;;;;;;;10.13;89.40;102259.63;5058717;28;20458;-90
2021/10/10 09:17:22;;;;;;;30.20;21.33;;;;;;;10.15;89.09;102264.84;5054667;28;20873;-84
2021/10/10 09:19:59;;;;;;;30.63;20.67;;;;;;;10.22;88.79;102273.25;5060609;28;20049;-81
2021/10/10 09:22:26;;;;;;;30.60;20.85;;;;;;;10.31;88.34;102267.16;5066132;28;20040;-83
2021/10/10 09:24:54;;;;;;;31.42;20.23;;;;;;;10.37;89.08;102274.72;5061494;28;20045;-86
2021/10/10 09:27:22;;;;;;;28.55;20.98;;;;;;;10.40;88.24;102266.41;5063534;28;20110;-86
2021/10/10 09:29:51;;;;;;;28.15;20.30;;;;;;;10.44;88.74;102270.53;5064588;28;20068;-82
2021/10/10 09:32:19;;;;;;;27.10;18.83;;;;;;;10.39;88.29;102268.25;5055942;28;20392;-86
2021/10/10 09:34:46;;;;;;;30.65;20.35;;;;;;;10.41;88.45;102270.78;5065876;28;20043;-84
2021/10/10 09:37:20;;;;;;;31.63;21.05;;;;;;;10.46;88.36;102265.03;5059369;28;20490;-87
2021/10/10 09:39:53;;;;;;;28.67;20.30;;;;;;;10.48;88.66;102255.03;5061361;28;20044;-81
2021/10/10 09:42:32;;;;;;;28.05;19.67;;;;;;;10.43;88.71;102259.94;5062677;28;20094;-84
2021/10/10 09:45:12;;;;;;;28.70;20.88;;;;;;;10.46;89.16;102260.53;5057132;28;20040;-87
2021/10/10 09:47:53;;;;;;;30.05;21.33;;;;;;;10.53;88.70;102264.41;5064935;28;20039;-85
2021/10/10 09:50:19;;;;;;;30.58;20.88;;;;;;;10.62;89.08;102268.16;5065044;28;20099;-87
2021/10/10 09:52:45;;;;;;;30.73;20.30;;;;;;;10.73;88.75;102267.22;5059440;28;20048;-86
2021/10/10 09:55:12;;;;;;;26.95;19.55;;;;;;;10.82;88.93;102264.66;5063871;28;20032;-86
2021/10/10 09:57:48;;;;;;;31.77;21.55;;;;;;;10.86;89.32;102253.63;5060491;28;20037;-87
2021/10/10 10:00:27;;;;;;;29.15;20.42;;;;;;;10.88;88.76;102260.59;5068069;28;20039;-85
2021/10/10 10:03:01;;;;;;;28.95;20.25;;;;;;;10.99;88.59;102259.66;5067342;28;20500;-84
2021/10/10 10:05:29;;;;;;;32.47;21.33;;;;;;;11.07;89.35;102255.31;5066021;28;20287;-84
2021/10/10 10:07:56;;;;;;;31.80;21.33;;;;;;;11.17;89.22;102249.19;5068534;28;20064;-86
2021/10/10 10:10:23;;;;;;;30.98;21.27;;;;;;;11.28;88.49;102243.72;5085236;28;20051;-84
2021/10/10 10:12:50;;;;;;;31.80;22.35;;;;;;;11.34;88.96;102245.88;5062856;28;20067;-85
2021/10/10 10:15:18;;;;;;;32.35;20.88;;;;;;;11.33;88.36;102233.41;5067567;28;20041;-89
2021/10/10 10:17:46;;;;;;;28.67;21.27;;;;;;;11.46;88.13;102228.66;5064206;28;20492;-89
2021/10/10 10:20:14;;;;;;;30.42;21.08;;;;;;;11.61;87.37;102230.97;5055047;28;20090;-87
2021/10/10 10:22:41;;;;;;;34.38;23.17;;;;;;;11.68;88.14;102229.44;5059241;28;20032;-83
2021/10/10 10:25:07;;;;;;;32.00;21.92;;;;;;;11.66;87.18;102226.06;5055154;28;20043;-86
2021/10/10 10:27:33;;;;;;;30.80;21.77;;;;;;;11.73;87.10;102213.75;5071616;28;20274;-84
2021/10/10 10:29:59;;;;;;;31.30;21.63;;;;;;;11.87;87.85;102205.31;5054330;28;20048;-81
2021/10/10 10:32:29;;;;;;;29.98;22.40;;;;;;;11.88;86.89;102211.56;5065274;28;20075;-86
2021/10/10 10:38:04;;;;;;;30.63;21.50;;;;;;;11.92;87.85;102213.84;5042441;28;20076;-83
2021/10/10 10:40:33;;;;;;;29.95;21.05;;;;;;;11.92;86.50;102210.31;5079146;28;20573;-88
2021/10/10 10:43:04;;;;;;;31.00;21.37;;;;;;;11.96;86.60;102206.34;5062238;28;20056;-86
2021/10/10 10:45:31;;;;;;;30.73;22.08;;;;;;;12.01;86.77;102200.53;5064164;28;20071;-85
2021/10/10 10:48:35;;;;;;;30.95;21.77;;;;;;;12.08;86.77;102188.22;5051032;28;20066;-89
2021/10/10 10:51:23;;;;;;;31.23;22.25;;;;;;;12.16;87.69;102199.97;5021203;28;20128;-90
2021/10/10 10:53:49;;;;;;;30.63;22.55;;;;;;;12.26;87.14;102197.31;5045491;28;20098;-85
2021/10/10 10:56:33;;;;;;;30.67;21.35;;;;;;;12.27;86.47;102206.22;5042013;28;20044;-89
2021/10/10 10:58:59;;;;;;;33.58;21.70;;;;;;;12.27;85.80;102212.47;5028245;28;20304;-86
2021/10/10 11:01:25;;;;;;;31.73;22.45;;;;;;;12.35;86.50;102219.84;5061905;28;21093;-88
2021/10/10 11:03:51;;;;;;;32.47;22.52;;;;;;;12.49;85.90;102216.72;5043788;28;20195;-90
2021/10/10 11:06:19;;;;;;;34.08;22.15;;;;;;;12.65;85.91;102216.97;5070888;28;20052;-85
2021/10/10 11:08:44;;;;;;;29.70;21.15;;;;;;;12.71;84.51;102217.41;5040450;28;20068;-87
2021/10/10 11:11:17;;;;;;;36.20;22.20;;;;;;;12.71;85.80;102220.94;5047895;28;20090;-84
2021/10/10 11:13:47;;;;;;;30.45;21.13;;;;;;;12.86;85.51;102214.13;5049420;28;20533;-85
2021/10/10 11:16:20;;;;;;;28.58;21.00;;;;;;;12.92;83.67;102214.53;5083783;28;20091;-83
2021/10/10 11:18:45;;;;;;;33.95;22.35;;;;;;;12.98;83.89;102211.28;5073822;28;20040;-82